sensor_id;sensor_type;location;lat;lon;timestamp;P1;durP1;ratioP1;P2;durP2;ratioP2
68097;SDS011;54886;47.036;15.466;2024-02-21T00:01:03;7.18;;;3.45;;
68097;SDS011;54886;47.036;15.466;2024-02-21T00:03:29;7.90;;;3.55;;
68097;SDS011;54886;47.036;15.466;2024-02-21T00:05:54;7.97;;;3.78;;
68097;SDS011;54886;47.036;15.466;2024-02-21T00:08:19;9.82;;;3.88;;
68097;SDS011;54886;47.036;15.466;2024-02-21T00:10:45;7.18;;;3.55;;
68097;SDS011;54886;47.036;15.466;2024-02-21T00:13:10;8.55;;;3.75;;
68097;SDS011;54886;47.036;15.466;2024-02-21T00:15:36;8.27;;;3.67;;
68097;SDS011;54886;47.036;15.466;2024-02-21T00:18:02;7.05;;;3.50;;
68097;SDS011;54886;47.036;15.466;2024-02-21T00:20:28;8.23;;;3.55;;
68097;SDS011;54886;47.036;15.466;2024-02-21T00:22:53;7.95;;;3.45;;
68097;SDS011;54886;47.036;15.466;2024-02-21T00:25:19;8.45;;;3.95;;
68097;SDS011;54886;47.036;15.466;2024-02-21T00:27:44;7.63;;;3.75;;
68097;SDS011;54886;47.036;15.466;2024-02-21T00:30:10;8.40;;;3.58;;
68097;SDS011;54886;47.036;15.466;2024-02-21T00:32:36;7.18;;;3.47;;
68097;SDS011;54886;47.036;15.466;2024-02-21T00:35:01;7.70;;;3.95;;
68097;SDS011;54886;47.036;15.466;2024-02-21T00:37:27;8.10;;;3.63;;
68097;SDS011;54886;47.036;15.466;2024-02-21T00:39:53;7.32;;;3.60;;
68097;SDS011;54886;47.036;15.466;2024-02-21T00:42:19;7.65;;;3.65;;
68097;SDS011;54886;47.036;15.466;2024-02-21T00:44:44;7.18;;;3.75;;
68097;SDS011;54886;47.036;15.466;2024-02-21T00:47:10;8.82;;;4.00;;
68097;SDS011;54886;47.036;15.466;2024-02-21T00:49:35;10.07;;;3.70;;
68097;SDS011;54886;47.036;15.466;2024-02-21T00:52:01;7.05;;;3.50;;
68097;SDS011;54886;47.036;15.466;2024-02-21T00:54:26;8.05;;;3.88;;
68097;SDS011;54886;47.036;15.466;2024-02-21T00:56:51;6.90;;;3.58;;
68097;SDS011;54886;47.036;15.466;2024-02-21T00:59:17;8.40;;;3.72;;
68097;SDS011;54886;47.036;15.466;2024-02-21T01:01:43;6.85;;;3.50;;
68097;SDS011;54886;47.036;15.466;2024-02-21T01:04:11;6.60;;;3.42;;
68097;SDS011;54886;47.036;15.466;2024-02-21T01:06:36;8.35;;;3.85;;
68097;SDS011;54886;47.036;15.466;2024-02-21T01:09:02;8.32;;;3.72;;
68097;SDS011;54886;47.036;15.466;2024-02-21T01:11:27;7.47;;;3.60;;
68097;SDS011;54886;47.036;15.466;2024-02-21T01:13:53;8.32;;;3.50;;
68097;SDS011;54886;47.036;15.466;2024-02-21T01:16:19;8.68;;;3.88;;
68097;SDS011;54886;47.036;15.466;2024-02-21T01:18:44;6.45;;;3.35;;
68097;SDS011;54886;47.036;15.466;2024-02-21T01:21:10;8.85;;;3.60;;
68097;SDS011;54886;47.036;15.466;2024-02-21T01:23:35;7.18;;;3.53;;
68097;SDS011;54886;47.036;15.466;2024-02-21T01:26:02;8.90;;;3.90;;
68097;SDS011;54886;47.036;15.466;2024-02-21T01:28:28;8.65;;;3.85;;
68097;SDS011;54886;47.036;15.466;2024-02-21T01:30:53;8.13;;;3.60;;
68097;SDS011;54886;47.036;15.466;2024-02-21T01:33:19;7.18;;;3.80;;
68097;SDS011;54886;47.036;15.466;2024-02-21T01:35:44;9.90;;;3.78;;
68097;SDS011;54886;47.036;15.466;2024-02-21T01:38:10;7.05;;;3.45;;
68097;SDS011;54886;47.036;15.466;2024-02-21T01:40:37;5.63;;;3.28;;
68097;SDS011;54886;47.036;15.466;2024-02-21T01:43:03;7.97;;;3.33;;
68097;SDS011;54886;47.036;15.466;2024-02-21T01:45:28;9.07;;;3.65;;
68097;SDS011;54886;47.036;15.466;2024-02-21T01:47:53;7.60;;;3.40;;
68097;SDS011;54886;47.036;15.466;2024-02-21T01:50:19;10.05;;;3.65;;
68097;SDS011;54886;47.036;15.466;2024-02-21T01:52:46;10.48;;;3.45;;
68097;SDS011;54886;47.036;15.466;2024-02-21T01:55:13;8.00;;;3.38;;
68097;SDS011;54886;47.036;15.466;2024-02-21T01:57:40;7.25;;;3.30;;
68097;SDS011;54886;47.036;15.466;2024-02-21T02:00:07;7.30;;;3.20;;
68097;SDS011;54886;47.036;15.466;2024-02-21T02:02:35;7.78;;;4.20;;
68097;SDS011;54886;47.036;15.466;2024-02-21T02:05:02;6.53;;;3.72;;
68097;SDS011;54886;47.036;15.466;2024-02-21T02:07:29;8.35;;;3.90;;
68097;SDS011;54886;47.036;15.466;2024-02-21T02:09:54;9.00;;;4.00;;
68097;SDS011;54886;47.036;15.466;2024-02-21T02:12:19;10.23;;;4.63;;
68097;SDS011;54886;47.036;15.466;2024-02-21T02:14:46;8.02;;;4.07;;
68097;SDS011;54886;47.036;15.466;2024-02-21T02:17:11;8.55;;;4.13;;
68097;SDS011;54886;47.036;15.466;2024-02-21T02:19:37;8.20;;;3.95;;
68097;SDS011;54886;47.036;15.466;2024-02-21T02:22:13;10.43;;;4.53;;
68097;SDS011;54886;47.036;15.466;2024-02-21T02:24:47;8.10;;;4.03;;
68097;SDS011;54886;47.036;15.466;2024-02-21T02:27:12;8.30;;;3.58;;
68097;SDS011;54886;47.036;15.466;2024-02-21T02:29:37;9.50;;;3.78;;
68097;SDS011;54886;47.036;15.466;2024-02-21T02:32:03;8.25;;;3.53;;
68097;SDS011;54886;47.036;15.466;2024-02-21T02:34:28;10.43;;;3.90;;
68097;SDS011;54886;47.036;15.466;2024-02-21T02:36:55;8.13;;;3.67;;
68097;SDS011;54886;47.036;15.466;2024-02-21T02:39:20;7.60;;;3.78;;
68097;SDS011;54886;47.036;15.466;2024-02-21T02:41:46;8.18;;;3.78;;
68097;SDS011;54886;47.036;15.466;2024-02-21T02:44:11;9.73;;;3.75;;
68097;SDS011;54886;47.036;15.466;2024-02-21T02:46:36;7.93;;;3.78;;
68097;SDS011;54886;47.036;15.466;2024-02-21T02:49:05;9.70;;;3.75;;
68097;SDS011;54886;47.036;15.466;2024-02-21T02:51:30;8.35;;;3.75;;
68097;SDS011;54886;47.036;15.466;2024-02-21T02:53:56;6.68;;;3.55;;
68097;SDS011;54886;47.036;15.466;2024-02-21T02:56:22;9.85;;;3.67;;
68097;SDS011;54886;47.036;15.466;2024-02-21T02:58:47;9.40;;;3.65;;
68097;SDS011;54886;47.036;15.466;2024-02-21T03:01:13;7.82;;;3.47;;
68097;SDS011;54886;47.036;15.466;2024-02-21T03:03:38;8.48;;;3.90;;
68097;SDS011;54886;47.036;15.466;2024-02-21T03:06:04;6.43;;;3.50;;
68097;SDS011;54886;47.036;15.466;2024-02-21T03:08:30;10.10;;;4.43;;
68097;SDS011;54886;47.036;15.466;2024-02-21T03:10:55;7.53;;;4.15;;
68097;SDS011;54886;47.036;15.466;2024-02-21T03:13:20;10.27;;;4.30;;
68097;SDS011;54886;47.036;15.466;2024-02-21T03:15:46;10.32;;;4.28;;
68097;SDS011;54886;47.036;15.466;2024-02-21T03:18:11;10.23;;;4.15;;
68097;SDS011;54886;47.036;15.466;2024-02-21T03:20:36;7.75;;;4.00;;
68097;SDS011;54886;47.036;15.466;2024-02-21T03:23:02;8.02;;;3.88;;
68097;SDS011;54886;47.036;15.466;2024-02-21T03:25:27;8.25;;;3.65;;
68097;SDS011;54886;47.036;15.466;2024-02-21T03:27:53;8.93;;;4.65;;
68097;SDS011;54886;47.036;15.466;2024-02-21T03:30:18;8.82;;;4.25;;
68097;SDS011;54886;47.036;15.466;2024-02-21T03:32:43;11.10;;;4.80;;
68097;SDS011;54886;47.036;15.466;2024-02-21T03:35:09;9.23;;;4.40;;
68097;SDS011;54886;47.036;15.466;2024-02-21T03:37:34;8.80;;;4.32;;
68097;SDS011;54886;47.036;15.466;2024-02-21T03:40:00;9.38;;;4.20;;
68097;SDS011;54886;47.036;15.466;2024-02-21T03:42:25;8.63;;;4.35;;
68097;SDS011;54886;47.036;15.466;2024-02-21T03:44:51;8.95;;;4.40;;
68097;SDS011;54886;47.036;15.466;2024-02-21T03:47:16;10.45;;;4.65;;
68097;SDS011;54886;47.036;15.466;2024-02-21T03:49:41;7.68;;;4.18;;
68097;SDS011;54886;47.036;15.466;2024-02-21T03:52:07;7.60;;;4.03;;
68097;SDS011;54886;47.036;15.466;2024-02-21T03:54:33;7.97;;;3.90;;
68097;SDS011;54886;47.036;15.466;2024-02-21T03:56:58;8.68;;;4.20;;
68097;SDS011;54886;47.036;15.466;2024-02-21T03:59:24;9.43;;;4.50;;
68097;SDS011;54886;47.036;15.466;2024-02-21T04:01:52;9.32;;;4.40;;
68097;SDS011;54886;47.036;15.466;2024-02-21T04:04:18;11.93;;;4.32;;
68097;SDS011;54886;47.036;15.466;2024-02-21T04:06:49;9.02;;;4.32;;
68097;SDS011;54886;47.036;15.466;2024-02-21T04:09:15;9.38;;;3.97;;
68097;SDS011;54886;47.036;15.466;2024-02-21T04:11:41;6.97;;;3.70;;
68097;SDS011;54886;47.036;15.466;2024-02-21T04:14:06;10.18;;;4.28;;
68097;SDS011;54886;47.036;15.466;2024-02-21T04:16:32;8.70;;;4.28;;
68097;SDS011;54886;47.036;15.466;2024-02-21T04:18:57;7.60;;;3.63;;
68097;SDS011;54886;47.036;15.466;2024-02-21T04:21:23;7.80;;;3.95;;
68097;SDS011;54886;47.036;15.466;2024-02-21T04:23:48;7.55;;;4.07;;
68097;SDS011;54886;47.036;15.466;2024-02-21T04:26:13;8.63;;;4.03;;
68097;SDS011;54886;47.036;15.466;2024-02-21T04:28:39;7.40;;;3.60;;
68097;SDS011;54886;47.036;15.466;2024-02-21T04:31:04;11.65;;;4.45;;
68097;SDS011;54886;47.036;15.466;2024-02-21T04:33:30;7.95;;;3.92;;
68097;SDS011;54886;47.036;15.466;2024-02-21T04:35:55;8.82;;;4.15;;
68097;SDS011;54886;47.036;15.466;2024-02-21T04:38:20;8.35;;;4.00;;
68097;SDS011;54886;47.036;15.466;2024-02-21T04:40:46;9.38;;;4.30;;
68097;SDS011;54886;47.036;15.466;2024-02-21T04:43:11;8.30;;;4.20;;
68097;SDS011;54886;47.036;15.466;2024-02-21T04:45:36;8.85;;;4.13;;
68097;SDS011;54886;47.036;15.466;2024-02-21T04:48:02;12.30;;;5.40;;
68097;SDS011;54886;47.036;15.466;2024-02-21T04:50:27;21.55;;;6.20;;
68097;SDS011;54886;47.036;15.466;2024-02-21T04:52:53;23.27;;;8.98;;
68097;SDS011;54886;47.036;15.466;2024-02-21T04:55:18;25.75;;;10.15;;
68097;SDS011;54886;47.036;15.466;2024-02-21T04:57:43;27.45;;;11.10;;
68097;SDS011;54886;47.036;15.466;2024-02-21T05:00:09;22.65;;;9.20;;
68097;SDS011;54886;47.036;15.466;2024-02-21T05:02:35;21.45;;;8.60;;
68097;SDS011;54886;47.036;15.466;2024-02-21T05:05:01;21.92;;;8.02;;
68097;SDS011;54886;47.036;15.466;2024-02-21T05:07:27;19.15;;;7.63;;
68097;SDS011;54886;47.036;15.466;2024-02-21T05:09:53;15.82;;;7.40;;
68097;SDS011;54886;47.036;15.466;2024-02-21T05:12:18;18.27;;;6.90;;
68097;SDS011;54886;47.036;15.466;2024-02-21T05:14:43;15.48;;;6.63;;
68097;SDS011;54886;47.036;15.466;2024-02-21T05:17:09;17.95;;;6.45;;
68097;SDS011;54886;47.036;15.466;2024-02-21T05:19:34;17.20;;;6.53;;
68097;SDS011;54886;47.036;15.466;2024-02-21T05:21:59;17.33;;;6.57;;
68097;SDS011;54886;47.036;15.466;2024-02-21T05:24:25;12.82;;;5.85;;
68097;SDS011;54886;47.036;15.466;2024-02-21T05:26:51;18.65;;;6.38;;
68097;SDS011;54886;47.036;15.466;2024-02-21T05:29:16;14.48;;;6.35;;
68097;SDS011;54886;47.036;15.466;2024-02-21T05:34:19;12.98;;;5.40;;
68097;SDS011;54886;47.036;15.466;2024-02-21T05:36:45;12.98;;;6.30;;
68097;SDS011;54886;47.036;15.466;2024-02-21T05:39:11;18.90;;;6.45;;
68097;SDS011;54886;47.036;15.466;2024-02-21T05:41:38;10.82;;;5.15;;
68097;SDS011;54886;47.036;15.466;2024-02-21T05:44:03;14.65;;;5.60;;
68097;SDS011;54886;47.036;15.466;2024-02-21T05:46:29;10.52;;;5.07;;
68097;SDS011;54886;47.036;15.466;2024-02-21T05:48:54;13.27;;;5.38;;
68097;SDS011;54886;47.036;15.466;2024-02-21T05:51:19;12.32;;;5.85;;
68097;SDS011;54886;47.036;15.466;2024-02-21T05:53:45;10.13;;;5.13;;
68097;SDS011;54886;47.036;15.466;2024-02-21T05:56:10;16.38;;;5.80;;
68097;SDS011;54886;47.036;15.466;2024-02-21T05:58:36;9.32;;;4.93;;
68097;SDS011;54886;47.036;15.466;2024-02-21T06:01:02;15.15;;;6.20;;
68097;SDS011;54886;47.036;15.466;2024-02-21T06:03:28;15.13;;;5.97;;
68097;SDS011;54886;47.036;15.466;2024-02-21T06:05:54;11.68;;;5.82;;
68097;SDS011;54886;47.036;15.466;2024-02-21T06:08:20;13.10;;;5.50;;
68097;SDS011;54886;47.036;15.466;2024-02-21T06:10:45;12.30;;;5.78;;
68097;SDS011;54886;47.036;15.466;2024-02-21T06:13:11;13.27;;;5.82;;
68097;SDS011;54886;47.036;15.466;2024-02-21T06:15:36;13.65;;;5.85;;
68097;SDS011;54886;47.036;15.466;2024-02-21T06:18:01;12.48;;;5.63;;
68097;SDS011;54886;47.036;15.466;2024-02-21T06:20:27;11.85;;;5.35;;
68097;SDS011;54886;47.036;15.466;2024-02-21T06:22:53;11.63;;;6.28;;
68097;SDS011;54886;47.036;15.466;2024-02-21T06:25:18;14.75;;;6.03;;
68097;SDS011;54886;47.036;15.466;2024-02-21T06:27:44;18.38;;;5.97;;
68097;SDS011;54886;47.036;15.466;2024-02-21T06:30:09;11.90;;;5.95;;
68097;SDS011;54886;47.036;15.466;2024-02-21T06:32:35;12.73;;;5.55;;
68097;SDS011;54886;47.036;15.466;2024-02-21T06:35:00;12.15;;;5.35;;
68097;SDS011;54886;47.036;15.466;2024-02-21T06:37:27;14.07;;;5.40;;
68097;SDS011;54886;47.036;15.466;2024-02-21T06:39:52;14.80;;;5.82;;
68097;SDS011;54886;47.036;15.466;2024-02-21T06:42:17;12.80;;;5.95;;
68097;SDS011;54886;47.036;15.466;2024-02-21T06:44:44;13.68;;;5.65;;
68097;SDS011;54886;47.036;15.466;2024-02-21T06:47:09;11.02;;;5.00;;
68097;SDS011;54886;47.036;15.466;2024-02-21T06:49:35;11.75;;;5.45;;
68097;SDS011;54886;47.036;15.466;2024-02-21T06:52:02;10.20;;;4.47;;
68097;SDS011;54886;47.036;15.466;2024-02-21T06:54:29;12.48;;;6.95;;
68097;SDS011;54886;47.036;15.466;2024-02-21T06:56:55;13.07;;;6.47;;
68097;SDS011;54886;47.036;15.466;2024-02-21T06:59:20;15.02;;;6.20;;
68097;SDS011;54886;47.036;15.466;2024-02-21T07:01:47;12.40;;;5.82;;
68097;SDS011;54886;47.036;15.466;2024-02-21T07:04:13;9.95;;;4.93;;
68097;SDS011;54886;47.036;15.466;2024-02-21T07:06:39;11.82;;;4.88;;
68097;SDS011;54886;47.036;15.466;2024-02-21T07:09:05;11.30;;;4.60;;
68097;SDS011;54886;47.036;15.466;2024-02-21T07:11:30;10.82;;;4.68;;
68097;SDS011;54886;47.036;15.466;2024-02-21T07:13:56;9.70;;;4.03;;
68097;SDS011;54886;47.036;15.466;2024-02-21T07:16:21;9.85;;;4.20;;
68097;SDS011;54886;47.036;15.466;2024-02-21T07:18:46;10.35;;;3.97;;
68097;SDS011;54886;47.036;15.466;2024-02-21T07:21:12;9.27;;;4.28;;
68097;SDS011;54886;47.036;15.466;2024-02-21T07:23:40;9.50;;;3.92;;
68097;SDS011;54886;47.036;15.466;2024-02-21T07:26:07;7.63;;;4.32;;
68097;SDS011;54886;47.036;15.466;2024-02-21T07:28:32;9.23;;;4.30;;
68097;SDS011;54886;47.036;15.466;2024-02-21T07:30:58;11.90;;;4.35;;
68097;SDS011;54886;47.036;15.466;2024-02-21T07:33:24;11.38;;;4.70;;
68097;SDS011;54886;47.036;15.466;2024-02-21T07:35:49;10.73;;;4.88;;
68097;SDS011;54886;47.036;15.466;2024-02-21T07:38:15;12.00;;;4.88;;
68097;SDS011;54886;47.036;15.466;2024-02-21T07:40:43;9.55;;;4.60;;
68097;SDS011;54886;47.036;15.466;2024-02-21T07:43:09;11.13;;;4.60;;
68097;SDS011;54886;47.036;15.466;2024-02-21T07:45:35;11.00;;;4.63;;
68097;SDS011;54886;47.036;15.466;2024-02-21T07:48:00;11.13;;;4.82;;
68097;SDS011;54886;47.036;15.466;2024-02-21T07:50:26;11.18;;;4.93;;
68097;SDS011;54886;47.036;15.466;2024-02-21T07:52:51;9.50;;;4.30;;
68097;SDS011;54886;47.036;15.466;2024-02-21T07:55:17;8.52;;;4.43;;
68097;SDS011;54886;47.036;15.466;2024-02-21T07:57:42;7.20;;;3.92;;
68097;SDS011;54886;47.036;15.466;2024-02-21T08:00:08;13.20;;;5.40;;
68097;SDS011;54886;47.036;15.466;2024-02-21T08:02:35;10.63;;;4.32;;
68097;SDS011;54886;47.036;15.466;2024-02-21T08:05:01;15.98;;;4.80;;
68097;SDS011;54886;47.036;15.466;2024-02-21T08:07:26;10.85;;;5.70;;
68097;SDS011;54886;47.036;15.466;2024-02-21T08:09:54;20.75;;;14.30;;
68097;SDS011;54886;47.036;15.466;2024-02-21T08:12:19;20.15;;;11.00;;
68097;SDS011;54886;47.036;15.466;2024-02-21T08:14:45;10.82;;;5.90;;
68097;SDS011;54886;47.036;15.466;2024-02-21T08:17:10;10.88;;;4.82;;
68097;SDS011;54886;47.036;15.466;2024-02-21T08:19:36;7.63;;;3.35;;
68097;SDS011;54886;47.036;15.466;2024-02-21T08:22:01;8.10;;;3.20;;
68097;SDS011;54886;47.036;15.466;2024-02-21T08:24:26;8.55;;;3.00;;
68097;SDS011;54886;47.036;15.466;2024-02-21T08:26:52;7.47;;;3.20;;
68097;SDS011;54886;47.036;15.466;2024-02-21T08:29:17;9.77;;;2.97;;
68097;SDS011;54886;47.036;15.466;2024-02-21T08:31:42;6.90;;;2.80;;
68097;SDS011;54886;47.036;15.466;2024-02-21T08:34:08;6.53;;;3.30;;
68097;SDS011;54886;47.036;15.466;2024-02-21T08:36:33;8.65;;;3.58;;
68097;SDS011;54886;47.036;15.466;2024-02-21T08:39:00;7.63;;;3.50;;
68097;SDS011;54886;47.036;15.466;2024-02-21T08:41:26;7.47;;;3.47;;
68097;SDS011;54886;47.036;15.466;2024-02-21T08:43:52;9.07;;;3.47;;
68097;SDS011;54886;47.036;15.466;2024-02-21T08:46:18;8.60;;;3.10;;
68097;SDS011;54886;47.036;15.466;2024-02-21T08:48:49;7.70;;;3.28;;
68097;SDS011;54886;47.036;15.466;2024-02-21T08:51:15;7.40;;;3.15;;
68097;SDS011;54886;47.036;15.466;2024-02-21T08:53:40;7.72;;;3.25;;
68097;SDS011;54886;47.036;15.466;2024-02-21T08:56:06;10.35;;;3.42;;
68097;SDS011;54886;47.036;15.466;2024-02-21T08:58:35;7.15;;;3.42;;
68097;SDS011;54886;47.036;15.466;2024-02-21T09:01:02;9.20;;;3.42;;
68097;SDS011;54886;47.036;15.466;2024-02-21T09:03:30;9.32;;;3.40;;
68097;SDS011;54886;47.036;15.466;2024-02-21T09:05:59;8.05;;;3.40;;
68097;SDS011;54886;47.036;15.466;2024-02-21T09:08:25;6.85;;;3.38;;
68097;SDS011;54886;47.036;15.466;2024-02-21T09:10:51;6.07;;;3.38;;
68097;SDS011;54886;47.036;15.466;2024-02-21T09:13:16;7.32;;;3.50;;
68097;SDS011;54886;47.036;15.466;2024-02-21T09:15:42;10.30;;;3.22;;
68097;SDS011;54886;47.036;15.466;2024-02-21T09:18:08;6.68;;;3.25;;
68097;SDS011;54886;47.036;15.466;2024-02-21T09:20:33;6.32;;;3.20;;
68097;SDS011;54886;47.036;15.466;2024-02-21T09:22:58;6.75;;;3.35;;
68097;SDS011;54886;47.036;15.466;2024-02-21T09:25:24;11.57;;;3.30;;
68097;SDS011;54886;47.036;15.466;2024-02-21T09:27:49;9.48;;;3.22;;
68097;SDS011;54886;47.036;15.466;2024-02-21T09:30:17;9.52;;;3.58;;
68097;SDS011;54886;47.036;15.466;2024-02-21T09:32:42;10.90;;;3.45;;
68097;SDS011;54886;47.036;15.466;2024-02-21T09:35:07;7.40;;;3.10;;
68097;SDS011;54886;47.036;15.466;2024-02-21T09:37:33;8.35;;;3.13;;
68097;SDS011;54886;47.036;15.466;2024-02-21T09:39:59;8.10;;;3.33;;
68097;SDS011;54886;47.036;15.466;2024-02-21T09:42:32;6.43;;;2.83;;
68097;SDS011;54886;47.036;15.466;2024-02-21T09:45:03;6.13;;;2.60;;
68097;SDS011;54886;47.036;15.466;2024-02-21T09:47:34;8.13;;;3.00;;
68097;SDS011;54886;47.036;15.466;2024-02-21T09:50:05;5.60;;;2.60;;
68097;SDS011;54886;47.036;15.466;2024-02-21T09:52:31;4.55;;;2.72;;
68097;SDS011;54886;47.036;15.466;2024-02-21T09:54:59;5.85;;;2.78;;
68097;SDS011;54886;47.036;15.466;2024-02-21T09:57:26;7.18;;;2.80;;
68097;SDS011;54886;47.036;15.466;2024-02-21T09:59:53;5.28;;;2.83;;
68097;SDS011;54886;47.036;15.466;2024-02-21T10:02:20;7.50;;;2.92;;
68097;SDS011;54886;47.036;15.466;2024-02-21T10:04:46;5.88;;;2.70;;
68097;SDS011;54886;47.036;15.466;2024-02-21T10:07:11;9.32;;;2.65;;
68097;SDS011;54886;47.036;15.466;2024-02-21T10:09:37;8.25;;;2.90;;
68097;SDS011;54886;47.036;15.466;2024-02-21T10:12:09;7.38;;;2.75;;
68097;SDS011;54886;47.036;15.466;2024-02-21T10:14:36;11.05;;;3.38;;
68097;SDS011;54886;47.036;15.466;2024-02-21T10:17:01;7.20;;;2.90;;
68097;SDS011;54886;47.036;15.466;2024-02-21T10:19:27;10.93;;;3.40;;
68097;SDS011;54886;47.036;15.466;2024-02-21T10:22:06;5.65;;;2.95;;
68097;SDS011;54886;47.036;15.466;2024-02-21T10:24:33;9.00;;;3.42;;
68097;SDS011;54886;47.036;15.466;2024-02-21T10:27:01;5.95;;;2.90;;
68097;SDS011;54886;47.036;15.466;2024-02-21T10:29:28;6.88;;;3.28;;
68097;SDS011;54886;47.036;15.466;2024-02-21T10:32:03;5.97;;;3.17;;
68097;SDS011;54886;47.036;15.466;2024-02-21T10:34:39;8.07;;;3.10;;
68097;SDS011;54886;47.036;15.466;2024-02-21T10:37:08;11.00;;;3.05;;
68097;SDS011;54886;47.036;15.466;2024-02-21T10:39:38;8.07;;;2.95;;
68097;SDS011;54886;47.036;15.466;2024-02-21T10:42:05;6.85;;;2.90;;
68097;SDS011;54886;47.036;15.466;2024-02-21T10:44:31;7.63;;;3.03;;
68097;SDS011;54886;47.036;15.466;2024-02-21T10:49:25;7.68;;;2.83;;
68097;SDS011;54886;47.036;15.466;2024-02-21T10:52:00;7.22;;;3.60;;
68097;SDS011;54886;47.036;15.466;2024-02-21T10:54:50;7.38;;;3.67;;
68097;SDS011;54886;47.036;15.466;2024-02-21T10:57:21;8.73;;;4.00;;
68097;SDS011;54886;47.036;15.466;2024-02-21T10:59:47;6.22;;;2.90;;
68097;SDS011;54886;47.036;15.466;2024-02-21T11:02:14;4.93;;;2.60;;
68097;SDS011;54886;47.036;15.466;2024-02-21T11:04:40;5.30;;;2.67;;
68097;SDS011;54886;47.036;15.466;2024-02-21T11:07:06;6.10;;;2.90;;
68097;SDS011;54886;47.036;15.466;2024-02-21T11:09:32;5.13;;;2.78;;
68097;SDS011;54886;47.036;15.466;2024-02-21T11:11:58;8.43;;;2.85;;
68097;SDS011;54886;47.036;15.466;2024-02-21T11:14:27;7.70;;;3.15;;
68097;SDS011;54886;47.036;15.466;2024-02-21T11:16:53;10.88;;;2.70;;
68097;SDS011;54886;47.036;15.466;2024-02-21T11:21:47;7.38;;;2.88;;
68097;SDS011;54886;47.036;15.466;2024-02-21T11:24:13;7.28;;;3.00;;
68097;SDS011;54886;47.036;15.466;2024-02-21T11:26:39;6.45;;;2.63;;
68097;SDS011;54886;47.036;15.466;2024-02-21T11:31:43;5.05;;;2.35;;
68097;SDS011;54886;47.036;15.466;2024-02-21T11:34:12;6.07;;;2.38;;
68097;SDS011;54886;47.036;15.466;2024-02-21T11:36:50;5.93;;;2.65;;
68097;SDS011;54886;47.036;15.466;2024-02-21T11:39:20;6.43;;;2.78;;
68097;SDS011;54886;47.036;15.466;2024-02-21T11:44:30;5.57;;;2.65;;
68097;SDS011;54886;47.036;15.466;2024-02-21T11:46:56;5.97;;;2.67;;
68097;SDS011;54886;47.036;15.466;2024-02-21T11:49:21;6.63;;;2.40;;
68097;SDS011;54886;47.036;15.466;2024-02-21T11:51:57;6.35;;;2.33;;
68097;SDS011;54886;47.036;15.466;2024-02-21T11:54:24;9.52;;;3.08;;
68097;SDS011;54886;47.036;15.466;2024-02-21T11:56:49;4.30;;;2.03;;
68097;SDS011;54886;47.036;15.466;2024-02-21T11:59:14;4.50;;;2.00;;
68097;SDS011;54886;47.036;15.466;2024-02-21T12:01:40;4.82;;;2.00;;
68097;SDS011;54886;47.036;15.466;2024-02-21T12:04:05;4.45;;;2.15;;
68097;SDS011;54886;47.036;15.466;2024-02-21T12:06:32;4.25;;;2.03;;
68097;SDS011;54886;47.036;15.466;2024-02-21T12:08:58;4.82;;;2.08;;
68097;SDS011;54886;47.036;15.466;2024-02-21T12:11:23;5.30;;;2.17;;
68097;SDS011;54886;47.036;15.466;2024-02-21T12:16:27;4.78;;;2.10;;
68097;SDS011;54886;47.036;15.466;2024-02-21T12:18:54;5.70;;;2.50;;
68097;SDS011;54886;47.036;15.466;2024-02-21T12:21:23;6.88;;;2.40;;
68097;SDS011;54886;47.036;15.466;2024-02-21T12:23:49;5.22;;;2.15;;
68097;SDS011;54886;47.036;15.466;2024-02-21T12:26:14;4.55;;;1.80;;
68097;SDS011;54886;47.036;15.466;2024-02-21T12:28:39;4.45;;;2.00;;
68097;SDS011;54886;47.036;15.466;2024-02-21T12:31:05;3.53;;;1.90;;
68097;SDS011;54886;47.036;15.466;2024-02-21T12:33:30;3.90;;;2.10;;
68097;SDS011;54886;47.036;15.466;2024-02-21T12:35:56;5.53;;;1.75;;
68097;SDS011;54886;47.036;15.466;2024-02-21T12:38:21;3.15;;;1.65;;
68097;SDS011;54886;47.036;15.466;2024-02-21T12:40:47;6.05;;;1.80;;
68097;SDS011;54886;47.036;15.466;2024-02-21T12:43:12;2.75;;;1.70;;
68097;SDS011;54886;47.036;15.466;2024-02-21T12:45:38;3.10;;;1.75;;
68097;SDS011;54886;47.036;15.466;2024-02-21T12:48:03;4.65;;;2.00;;
68097;SDS011;54886;47.036;15.466;2024-02-21T12:50:29;5.03;;;2.08;;
68097;SDS011;54886;47.036;15.466;2024-02-21T12:52:56;7.38;;;1.98;;
68097;SDS011;54886;47.036;15.466;2024-02-21T12:55:22;3.05;;;1.77;;
68097;SDS011;54886;47.036;15.466;2024-02-21T12:57:48;2.70;;;1.70;;
68097;SDS011;54886;47.036;15.466;2024-02-21T13:00:14;1.90;;;1.60;;
68097;SDS011;54886;47.036;15.466;2024-02-21T13:02:40;2.88;;;1.88;;
68097;SDS011;54886;47.036;15.466;2024-02-21T13:05:06;2.78;;;1.60;;
68097;SDS011;54886;47.036;15.466;2024-02-21T13:07:32;3.40;;;1.65;;
68097;SDS011;54886;47.036;15.466;2024-02-21T13:09:58;3.63;;;1.98;;
68097;SDS011;54886;47.036;15.466;2024-02-21T13:12:24;3.05;;;1.80;;
68097;SDS011;54886;47.036;15.466;2024-02-21T13:14:51;3.13;;;1.70;;
68097;SDS011;54886;47.036;15.466;2024-02-21T13:17:16;4.82;;;1.80;;
68097;SDS011;54886;47.036;15.466;2024-02-21T13:19:42;4.78;;;2.00;;
68097;SDS011;54886;47.036;15.466;2024-02-21T13:22:07;3.90;;;2.00;;
68097;SDS011;54886;47.036;15.466;2024-02-21T13:24:33;3.15;;;1.70;;
68097;SDS011;54886;47.036;15.466;2024-02-21T13:26:58;2.83;;;1.63;;
68097;SDS011;54886;47.036;15.466;2024-02-21T13:29:24;3.90;;;1.88;;
68097;SDS011;54886;47.036;15.466;2024-02-21T13:31:49;2.55;;;1.58;;
68097;SDS011;54886;47.036;15.466;2024-02-21T13:34:15;2.30;;;1.50;;
68097;SDS011;54886;47.036;15.466;2024-02-21T13:36:42;4.80;;;1.60;;
68097;SDS011;54886;47.036;15.466;2024-02-21T13:39:07;4.55;;;2.30;;
68097;SDS011;54886;47.036;15.466;2024-02-21T13:41:33;2.00;;;1.65;;
68097;SDS011;54886;47.036;15.466;2024-02-21T13:43:59;2.05;;;1.50;;
68097;SDS011;54886;47.036;15.466;2024-02-21T13:46:28;4.50;;;1.88;;
68097;SDS011;54886;47.036;15.466;2024-02-21T13:48:54;4.20;;;1.67;;
68097;SDS011;54886;47.036;15.466;2024-02-21T13:51:29;2.17;;;1.63;;
68097;SDS011;54886;47.036;15.466;2024-02-21T13:53:54;2.92;;;1.70;;
68097;SDS011;54886;47.036;15.466;2024-02-21T13:56:20;3.13;;;1.70;;
68097;SDS011;54886;47.036;15.466;2024-02-21T13:58:45;3.95;;;1.77;;
68097;SDS011;54886;47.036;15.466;2024-02-21T14:01:10;2.25;;;1.65;;
68097;SDS011;54886;47.036;15.466;2024-02-21T14:03:36;1.88;;;1.67;;
68097;SDS011;54886;47.036;15.466;2024-02-21T14:06:01;2.80;;;1.70;;
68097;SDS011;54886;47.036;15.466;2024-02-21T14:08:27;3.80;;;1.67;;
68097;SDS011;54886;47.036;15.466;2024-02-21T14:10:52;3.72;;;1.58;;
68097;SDS011;54886;47.036;15.466;2024-02-21T14:13:18;4.82;;;1.80;;
68097;SDS011;54886;47.036;15.466;2024-02-21T14:15:44;2.70;;;1.60;;
68097;SDS011;54886;47.036;15.466;2024-02-21T14:18:11;2.25;;;1.70;;
68097;SDS011;54886;47.036;15.466;2024-02-21T14:20:38;2.70;;;1.60;;
68097;SDS011;54886;47.036;15.466;2024-02-21T14:23:04;2.17;;;1.70;;
68097;SDS011;54886;47.036;15.466;2024-02-21T14:25:29;3.40;;;1.50;;
68097;SDS011;54886;47.036;15.466;2024-02-21T14:27:55;4.30;;;1.80;;
68097;SDS011;54886;47.036;15.466;2024-02-21T14:30:20;1.98;;;1.50;;
68097;SDS011;54886;47.036;15.466;2024-02-21T14:32:46;6.07;;;1.80;;
68097;SDS011;54886;47.036;15.466;2024-02-21T14:35:11;5.65;;;1.70;;
68097;SDS011;54886;47.036;15.466;2024-02-21T14:37:36;2.03;;;1.60;;
68097;SDS011;54886;47.036;15.466;2024-02-21T14:40:02;4.38;;;1.80;;